aviador You're here:

SLCB Decoded Metar

COCHABAMBA in BOLIVIA
Report Time2018-02-20 03:00:00
UTC Time2018-02-20 03:41:23
Flight Rules vfr VFR
Wind120° at 10 kt
W.Decomp.*RWY 14: 9.7 kt HW 2.4 kt LCW
RWY 04: 0.7 kt HW 10.0 kt RCW
W.Rank120° ranks 4
Current wind is above 120° avg. (6.3)
Visibility9999 m
Phenomena:N/A
Clouds:N/A
Expected CloudBase > 4,000 ft AGL from Temp-Dew spread
CeilingNone
Temp18°C (ISA +20)
Dew Point08°C (52% RH)
AAT13.9°C
QNH1020 hPa
Density Alt10,531 ft
Elevation8,360 ft
Report Wrong Elevation
Raw Report
METAR SLCB 200300Z 12010KT 9999 NSC 18/08 Q1020=

Extra information for SLCB:More info

Metar Taf Metar & Taf Last 4 Metars F.Rules Stats Wind Profile Meteogram Temp Stats Airport Information Weather charts Add Link Nearby VenuesMetar ALERT Operation Metar Decoded Social comments